Time,TemperatureF,DewpointF,PressureIn,WindDirection,WindDirectionDegrees,WindSpeedMPH,WindSpeedGustMPH,Humidity,HourlyPrecipIn,Conditions,Clouds,dailyrainin,SoftwareType,DateUTC
2013-08-17 00:00:00,74.5,71.7,30.07,NE,45,17.0,22.0,91,0.00,,,0.00,WUHU216DAVISVP2,2013-08-17 04:00:00,
2013-08-17 00:01:00,74.5,71.7,30.07,NE,51,17.0,17.0,91,0.00,,,0.00,Wunderground v.1.15,2013-08-17 04:01:00,
2013-08-17 00:11:00,74.4,71.6,30.07,ENE,58,17.0,17.0,91,0.00,,,0.00,Wunderground v.1.15,2013-08-17 04:11:00,
2013-08-17 00:16:00,73.6,70.8,30.07,NNE,18,16.0,17.0,91,0.00,,,0.00,Wunderground v.1.15,2013-08-17 04:16:00,
2013-08-17 00:26:00,72.3,69.8,30.07,NNW,335,9.0,13.0,92,0.00,,,0.00,Wunderground v.1.15,2013-08-17 04:26:00,
2013-08-17 00:30:00,72.0,69.9,30.07,NE,45,13.0,24.0,93,0.00,,,0.00,WUHU216DAVISVP2,2013-08-17 04:30:00,
2013-08-17 00:31:00,71.8,69.7,30.07,NNE,30,7.0,7.0,93,0.00,,,0.00,Wunderground v.1.15,2013-08-17 04:31:00,
2013-08-17 00:36:00,71.3,69.2,30.07,NNE,13,8.0,8.0,93,0.00,,,0.00,Wunderground v.1.15,2013-08-17 04:36:00,
2013-08-17 00:41:00,71.1,69.3,30.07,North,8,9.0,9.0,94,0.00,,,0.00,Wunderground v.1.15,2013-08-17 04:41:00,
2013-08-17 00:51:00,70.8,69.0,30.08,North,354,7.0,8.0,94,0.00,,,0.00,Wunderground v.1.15,2013-08-17 04:51:00,
2013-08-17 00:56:00,70.7,69.2,30.07,NNW,333,7.0,8.0,95,0.00,,,0.01,Wunderground v.1.15,2013-08-17 04:56:00,
2013-08-17 01:00:00,70.5,69.0,30.07,NNE,23,8.0,18.0,95,0.00,,,0.00,WUHU216DAVISVP2,2013-08-17 05:00:00,
2013-08-17 01:01:00,70.5,69.0,30.07,NE,42,7.0,7.0,95,0.13,,,0.02,Wunderground v.1.15,2013-08-17 05:01:00,
2013-08-17 01:11:00,70.3,68.8,30.07,NNE,15,7.0,8.0,95,0.05,,,0.02,Wunderground v.1.15,2013-08-17 05:11:00,
2013-08-17 01:16:00,70.3,68.8,30.07,NNE,31,8.0,9.0,95,0.00,,,0.02,Wunderground v.1.15,2013-08-17 05:16:00,
2013-08-17 01:21:00,70.3,69.1,30.07,NNE,18,10.0,10.0,96,0.00,,,0.02,Wunderground v.1.15,2013-08-17 05:21:00,
2013-08-17 01:30:00,70.3,69.1,30.07,NNE,23,8.0,19.0,96,0.02,,,0.02,WUHU216DAVISVP2,2013-08-17 05:30:00,
2013-08-17 01:31:00,70.4,69.2,30.06,North,10,8.0,12.0,96,0.00,,,0.02,Wunderground v.1.15,2013-08-17 05:31:00,
2013-08-17 01:36:00,70.7,69.5,30.06,NE,48,11.0,21.0,96,0.00,,,0.02,Wunderground v.1.15,2013-08-17 05:36:00,
2013-08-17 01:41:00,71.1,69.9,30.06,NNE,32,14.0,19.0,96,0.00,,,0.02,Wunderground v.1.15,2013-08-17 05:41:00,
2013-08-17 01:51:00,71.4,69.9,30.05,NE,41,17.0,18.0,95,0.00,,,0.02,Wunderground v.1.15,2013-08-17 05:51:00,
2013-08-17 01:56:00,71.5,70.0,30.05,NE,39,18.0,18.0,95,0.00,,,0.02,Wunderground v.1.15,2013-08-17 05:56:00,
2013-08-17 02:00:00,71.4,69.9,30.06,NE,45,16.0,27.0,95,0.00,,,0.02,WUHU216DAVISVP2,2013-08-17 06:00:00,
2013-08-17 02:01:00,71.5,70.0,30.06,NE,48,18.0,24.0,95,0.00,,,0.03,Wunderground v.1.15,2013-08-17 06:01:00,
2013-08-17 02:11:00,71.3,70.1,30.06,NE,51,23.0,27.0,96,0.38,,,0.09,Wunderground v.1.15,2013-08-17 06:11:00,
2013-08-17 02:16:00,71.0,69.8,30.05,NNE,31,23.0,27.0,96,0.99,,,0.13,Wunderground v.1.15,2013-08-17 06:16:00,
2013-08-17 02:21:00,70.6,69.4,30.05,NE,46,23.0,23.0,96,0.64,,,0.18,Wunderground v.1.15,2013-08-17 06:21:00,
2013-08-17 02:30:00,70.5,69.6,30.06,NE,45,21.0,30.0,97,0.01,,,0.03,WUHU216DAVISVP2,2013-08-17 06:30:00,
2013-08-17 02:31:00,70.5,69.9,30.05,NE,39,18.0,23.0,98,0.40,,,0.27,Wunderground v.1.15,2013-08-17 06:31:00,
2013-08-17 02:36:00,70.3,69.7,30.06,NE,39,16.0,23.0,98,0.56,,,0.32,Wunderground v.1.15,2013-08-17 06:36:00,
2013-08-17 02:41:00,70.4,69.8,30.06,NE,39,17.0,17.0,98,0.17,,,0.33,Wunderground v.1.15,2013-08-17 06:41:00,
2013-08-17 02:46:00,70.4,69.8,30.06,ENE,65,17.0,17.0,98,0.11,,,0.34,Wunderground v.1.15,2013-08-17 06:46:00,
2013-08-17 02:56:00,70.5,69.9,30.05,NE,54,20.0,25.0,98,0.17,,,0.37,Wunderground v.1.15,2013-08-17 06:56:00,
2013-08-17 03:00:00,70.7,70.1,30.05,NE,45,18.0,27.0,98,0.23,,,0.26,WUHU216DAVISVP2,2013-08-17 07:00:00,
2013-08-17 03:01:00,70.7,70.1,30.05,NE,47,20.0,20.0,98,0.09,,,0.38,Wunderground v.1.15,2013-08-17 07:01:00,
2013-08-17 03:11:00,70.7,70.1,30.05,NE,51,20.0,21.0,98,0.06,,,0.38,Wunderground v.1.15,2013-08-17 07:11:00,
2013-08-17 03:16:00,70.8,70.2,30.04,ENE,70,20.0,22.0,98,0.04,,,0.38,Wunderground v.1.15,2013-08-17 07:16:00,
2013-08-17 03:21:00,71.0,70.4,30.04,NE,47,21.0,21.0,98,0.00,,,0.38,Wunderground v.1.15,2013-08-17 07:21:00,
2013-08-17 03:26:00,71.2,70.6,30.04,NE,51,21.0,22.0,98,0.00,,,0.39,Wunderground v.1.15,2013-08-17 07:26:00,
2013-08-17 03:30:00,71.4,70.8,30.03,NE,45,21.0,27.0,98,0.11,,,0.37,WUHU216DAVISVP2,2013-08-17 07:30:00,
2013-08-17 03:36:00,71.6,71.0,30.03,NE,50,23.0,25.0,98,0.00,,,0.39,Wunderground v.1.15,2013-08-17 07:36:00,
2013-08-17 03:41:00,71.9,71.3,30.03,NE,42,24.0,24.0,98,0.00,,,0.39,Wunderground v.1.15,2013-08-17 07:41:00,
2013-08-17 03:46:00,72.0,71.1,30.03,ENE,59,23.0,24.0,97,0.00,,,0.39,Wunderground v.1.15,2013-08-17 07:46:00,
2013-08-17 03:51:00,72.2,71.3,30.03,ENE,68,23.0,23.0,97,0.00,,,0.39,Wunderground v.1.15,2013-08-17 07:51:00,
2013-08-17 04:00:00,72.5,71.6,30.03,NE,45,22.0,29.0,97,0.02,,,0.39,WUHU216DAVISVP2,2013-08-17 08:00:00,
2013-08-17 04:01:00,72.6,71.7,30.03,NE,49,21.0,24.0,97,0.00,,,0.39,Wunderground v.1.15,2013-08-17 08:01:00,
2013-08-17 04:11:00,72.9,72.0,30.03,NE,53,21.0,23.0,97,0.00,,,0.39,Wunderground v.1.15,2013-08-17 08:11:00,
2013-08-17 04:16:00,73.0,72.1,30.03,NE,56,21.0,23.0,97,0.00,,,0.39,Wunderground v.1.15,2013-08-17 08:16:00,
2013-08-17 04:21:00,73.2,72.3,30.03,NE,52,20.0,22.0,97,0.00,,,0.39,Wunderground v.1.15,2013-08-17 08:21:00,
2013-08-17 04:26:00,73.6,73.0,30.03,NE,50,19.0,22.0,98,0.00,,,0.39,Wunderground v.1.15,2013-08-17 08:26:00,
2013-08-17 04:30:00,73.6,72.7,30.02,NE,45,20.0,26.0,97,0.00,,,0.39,WUHU216DAVISVP2,2013-08-17 08:30:00,
2013-08-17 04:31:00,73.6,72.7,30.03,NE,51,19.0,19.0,97,0.00,,,0.39,Wunderground v.1.15,2013-08-17 08:31:00,
2013-08-17 04:41:00,74.0,73.4,30.02,NE,53,19.0,20.0,98,0.00,,,0.39,Wunderground v.1.15,2013-08-17 08:41:00,
2013-08-17 04:46:00,74.2,73.3,30.02,ENE,58,21.0,21.0,97,0.00,,,0.39,Wunderground v.1.15,2013-08-17 08:46:00,
2013-08-17 04:51:00,74.4,73.5,30.02,ENE,72,19.0,20.0,97,0.00,,,0.39,Wunderground v.1.15,2013-08-17 08:51:00,
2013-08-17 05:00:00,74.7,73.8,30.02,ENE,68,19.0,26.0,97,0.00,,,0.39,WUHU216DAVISVP2,2013-08-17 09:00:00,
2013-08-17 05:01:00,74.7,73.8,30.02,NE,38,18.0,22.0,97,0.00,,,0.39,Wunderground v.1.15,2013-08-17 09:01:00,
2013-08-17 05:11:00,75.1,74.2,30.02,SE,125,15.0,15.0,97,0.00,,,0.39,Wunderground v.1.15,2013-08-17 09:11:00,
2013-08-17 05:21:00,75.4,74.5,30.02,ESE,105,12.0,12.0,97,0.00,,,0.39,Wunderground v.1.15,2013-08-17 09:21:00,
2013-08-17 05:26:00,75.4,74.5,30.03,SE,128,12.0,12.0,97,0.00,,,0.39,Wunderground v.1.15,2013-08-17 09:26:00,
2013-08-17 05:30:00,75.3,74.1,30.02,East,90,13.0,22.0,96,0.00,,,0.39,WUHU216DAVISVP2,2013-08-17 09:30:00,
2013-08-17 05:31:00,75.2,74.0,30.03,SE,128,11.0,11.0,96,0.00,,,0.39,Wunderground v.1.15,2013-08-17 09:31:00,
2013-08-17 05:41:00,75.0,73.8,30.03,ESE,119,11.0,11.0,96,0.00,,,0.40,Wunderground v.1.15,2013-08-17 09:41:00,
2013-08-17 05:46:00,75.1,74.2,30.03,East,95,10.0,11.0,97,1.06,,,0.45,Wunderground v.1.15,2013-08-17 09:46:00,
2013-08-17 05:51:00,74.9,74.0,30.03,East,93,10.0,10.0,97,0.83,,,0.52,Wunderground v.1.15,2013-08-17 09:51:00,
2013-08-17 05:56:00,74.8,73.9,30.03,North,350,10.0,11.0,97,1.58,,,0.63,Wunderground v.1.15,2013-08-17 09:56:00,
2013-08-17 06:00:00,74.7,73.8,30.03,East,90,10.0,15.0,97,0.00,,,0.39,WUHU216DAVISVP2,2013-08-17 10:00:00,
2013-08-17 06:01:00,74.7,73.8,30.03,NE,50,10.0,10.0,97,0.17,,,0.66,Wunderground v.1.15,2013-08-17 10:01:00,
2013-08-17 06:11:00,75.1,74.5,30.03,East,94,9.0,9.0,98,0.04,,,0.66,Wunderground v.1.15,2013-08-17 10:11:00,
2013-08-17 06:16:00,75.4,74.5,30.03,East,99,9.0,10.0,97,0.00,,,0.66,Wunderground v.1.15,2013-08-17 10:16:00,
2013-08-17 06:26:00,75.6,74.7,30.03,ESE,108,9.0,12.0,97,0.00,,,0.66,Wunderground v.1.15,2013-08-17 10:26:00,
2013-08-17 06:30:00,75.6,74.4,30.03,ESE,113,9.0,13.0,96,0.27,,,0.66,WUHU216DAVISVP2,2013-08-17 10:30:00,
2013-08-17 06:31:00,75.6,74.4,30.03,ESE,102,10.0,10.0,96,0.00,,,0.66,Wunderground v.1.15,2013-08-17 10:31:00,
2013-08-17 06:36:00,75.7,74.5,30.03,NNE,16,10.0,10.0,96,0.00,,,0.66,Wunderground v.1.15,2013-08-17 10:36:00,
2013-08-17 06:46:00,75.9,74.7,30.03,East,94,11.0,11.0,96,0.00,,,0.66,Wunderground v.1.15,2013-08-17 10:46:00,
2013-08-17 06:51:00,75.9,74.4,30.03,ESE,109,10.0,10.0,95,0.00,,,0.66,Wunderground v.1.15,2013-08-17 10:51:00,
2013-08-17 06:56:00,76.0,74.5,30.03,ESE,107,10.0,11.0,95,0.00,,,0.66,Wunderground v.1.15,2013-08-17 10:56:00,
2013-08-17 07:00:00,76.1,74.6,30.04,ESE,113,10.0,14.0,95,0.00,,,0.66,WUHU216DAVISVP2,2013-08-17 11:00:00,
2013-08-17 07:01:00,76.2,74.7,30.04,ESE,107,9.0,10.0,95,0.00,,,0.66,Wunderground v.1.15,2013-08-17 11:01:00,
2013-08-17 07:11:00,76.3,74.4,30.04,East,101,9.0,11.0,94,0.00,,,0.66,Wunderground v.1.15,2013-08-17 11:11:00,
2013-08-17 07:16:00,76.3,74.4,30.04,SE,127,10.0,11.0,94,0.00,,,0.66,Wunderground v.1.15,2013-08-17 11:16:00,
2013-08-17 07:26:00,76.5,74.6,30.04,ESE,103,10.0,11.0,94,0.00,,,0.66,Wunderground v.1.15,2013-08-17 11:26:00,
2013-08-17 07:30:00,76.6,74.7,30.04,East,90,10.0,13.0,94,0.00,,,0.66,WUHU216DAVISVP2,2013-08-17 11:30:00,
2013-08-17 07:31:00,76.6,74.4,30.04,NNE,19,10.0,10.0,93,0.00,,,0.66,Wunderground v.1.15,2013-08-17 11:31:00,
2013-08-17 07:36:00,76.6,74.4,30.04,ESE,115,9.0,10.0,93,0.00,,,0.66,Wunderground v.1.15,2013-08-17 11:36:00,
2013-08-17 07:41:00,76.6,74.4,30.04,East,101,9.0,9.0,93,0.00,,,0.66,Wunderground v.1.15,2013-08-17 11:41:00,
2013-08-17 07:51:00,76.8,74.6,30.04,ESE,108,9.0,9.0,93,0.00,,,0.66,Wunderground v.1.15,2013-08-17 11:51:00,
2013-08-17 07:56:00,76.8,74.6,30.04,East,96,8.0,9.0,93,0.00,,,0.66,Wunderground v.1.15,2013-08-17 11:56:00,
2013-08-17 08:00:00,76.9,75.0,30.04,East,90,8.0,11.0,94,0.00,,,0.66,WUHU216DAVISVP2,2013-08-17 12:00:00,
2013-08-17 08:01:00,76.8,74.9,30.05,East,95,8.0,8.0,94,0.00,,,0.66,Wunderground v.1.15,2013-08-17 12:01:00,
2013-08-17 08:11:00,76.7,74.8,30.05,ESE,108,7.0,8.0,94,0.00,,,0.66,Wunderground v.1.15,2013-08-17 12:11:00,
2013-08-17 08:16:00,76.4,74.5,30.05,ENE,74,8.0,8.0,94,0.23,,,0.68,Wunderground v.1.15,2013-08-17 12:16:00,
2013-08-17 08:21:00,76.1,74.2,30.05,NNE,28,8.0,11.0,94,0.08,,,0.68,Wunderground v.1.15,2013-08-17 12:21:00,
2013-08-17 08:26:00,75.9,74.0,30.05,East,79,9.0,11.0,94,0.05,,,0.68,Wunderground v.1.15,2013-08-17 12:26:00,
2013-08-17 08:30:00,76.0,74.1,30.05,East,90,8.0,12.0,94,0.00,,,0.66,WUHU216DAVISVP2,2013-08-17 12:30:00,
2013-08-17 08:31:00,76.0,74.1,30.05,ENE,68,9.0,9.0,94,0.00,,,0.68,Wunderground v.1.15,2013-08-17 12:31:00,
2013-08-17 08:36:00,76.3,74.4,30.05,ENE,77,8.0,9.0,94,0.00,,,0.68,Wunderground v.1.15,2013-08-17 12:36:00,
2013-08-17 08:41:00,76.5,74.3,30.05,ENE,76,7.0,8.0,93,0.00,,,0.68,Wunderground v.1.15,2013-08-17 12:41:00,
2013-08-17 08:46:00,76.7,74.5,30.05,East,98,8.0,8.0,93,0.00,,,0.68,Wunderground v.1.15,2013-08-17 12:46:00,
2013-08-17 08:56:00,76.8,74.6,30.05,NE,47,8.0,10.0,93,0.00,,,0.68,Wunderground v.1.15,2013-08-17 12:56:00,
2013-08-17 09:00:00,76.9,74.7,30.05,East,90,8.0,13.0,93,0.02,,,0.68,WUHU216DAVISVP2,2013-08-17 13:00:00,
2013-08-17 09:01:00,76.9,74.7,30.05,ENE,58,9.0,9.0,93,0.00,,,0.68,Wunderground v.1.15,2013-08-17 13:01:00,
2013-08-17 09:11:00,76.9,75.0,30.05,East,86,10.0,10.0,94,0.00,,,0.68,Wunderground v.1.15,2013-08-17 13:11:00,
2013-08-17 09:21:00,77.1,74.9,30.05,East,100,10.0,10.0,93,0.00,,,0.68,Wunderground v.1.15,2013-08-17 13:21:00,
2013-08-17 09:26:00,77.1,74.9,30.05,ENE,75,10.0,11.0,93,0.00,,,0.68,Wunderground v.1.15,2013-08-17 13:26:00,
2013-08-17 09:30:00,77.1,74.9,30.06,ENE,68,10.0,14.0,93,0.00,,,0.68,WUHU216DAVISVP2,2013-08-17 13:30:00,
2013-08-17 09:31:00,77.2,75.0,30.06,ENE,76,11.0,11.0,93,0.00,,,0.68,Wunderground v.1.15,2013-08-17 13:31:00,
2013-08-17 09:36:00,77.2,75.0,30.06,East,79,11.0,11.0,93,0.00,,,0.68,Wunderground v.1.15,2013-08-17 13:36:00,
2013-08-17 09:46:00,77.3,74.8,30.06,ENE,75,11.0,11.0,92,0.00,,,0.68,Wunderground v.1.15,2013-08-17 13:46:00,
2013-08-17 09:51:00,77.4,74.9,30.06,East,81,11.0,11.0,92,0.00,,,0.68,Wunderground v.1.15,2013-08-17 13:51:00,
2013-08-17 09:56:00,77.4,74.9,30.06,ENE,70,11.0,11.0,92,0.00,,,0.68,Wunderground v.1.15,2013-08-17 13:56:00,
2013-08-17 10:00:00,77.4,74.9,30.06,ENE,68,11.0,14.0,92,0.00,,,0.68,WUHU216DAVISVP2,2013-08-17 14:00:00,
2013-08-17 10:01:00,77.5,75.0,30.06,ENE,63,11.0,11.0,92,0.00,,,0.68,Wunderground v.1.15,2013-08-17 14:01:00,
2013-08-17 10:11:00,77.6,75.1,30.07,East,94,10.0,10.0,92,0.00,,,0.68,Wunderground v.1.15,2013-08-17 14:11:00,
2013-08-17 10:21:00,77.7,75.2,30.07,ENE,75,10.0,10.0,92,0.00,,,0.68,Wunderground v.1.15,2013-08-17 14:21:00,
2013-08-17 10:26:00,77.8,75.3,30.07,ENE,68,10.0,10.0,92,0.00,,,0.68,Wunderground v.1.15,2013-08-17 14:26:00,
2013-08-17 10:30:00,77.8,75.0,30.07,ENE,68,10.0,13.0,91,0.00,,,0.68,WUHU216DAVISVP2,2013-08-17 14:30:00,
2013-08-17 10:31:00,77.8,75.3,30.07,East,91,9.0,11.0,92,0.00,,,0.68,Wunderground v.1.15,2013-08-17 14:31:00,
2013-08-17 10:36:00,77.9,75.4,30.07,NNE,25,10.0,11.0,92,0.00,,,0.68,Wunderground v.1.15,2013-08-17 14:36:00,
2013-08-17 10:41:00,78.0,75.2,30.07,ENE,72,10.0,10.0,91,0.00,,,0.68,Wunderground v.1.15,2013-08-17 14:41:00,
2013-08-17 10:51:00,77.8,75.3,30.07,NE,43,9.0,9.0,92,0.00,,,0.68,Wunderground v.1.15,2013-08-17 14:51:00,
2013-08-17 10:56:00,77.7,75.2,30.07,ENE,70,8.0,10.0,92,0.00,,,0.68,Wunderground v.1.15,2013-08-17 14:56:00,
2013-08-17 11:00:00,77.7,75.2,30.07,ENE,68,9.0,13.0,92,0.00,,,0.68,WUHU216DAVISVP2,2013-08-17 15:00:00,
2013-08-17 11:01:00,77.6,75.1,30.07,NNE,30,9.0,10.0,92,0.00,,,0.68,Wunderground v.1.15,2013-08-17 15:01:00,
2013-08-17 11:11:00,77.4,75.2,30.07,NE,43,10.0,10.0,93,0.00,,,0.69,Wunderground v.1.15,2013-08-17 15:11:00,
2013-08-17 11:16:00,77.2,75.3,30.07,NE,56,10.0,10.0,94,0.00,,,0.69,Wunderground v.1.15,2013-08-17 15:16:00,
2013-08-17 11:26:00,77.1,75.2,30.07,ENE,62,8.0,9.0,94,0.07,,,0.71,Wunderground v.1.15,2013-08-17 15:26:00,
2013-08-17 11:30:00,77.0,75.1,30.07,ENE,68,9.0,13.0,94,0.00,,,0.68,WUHU216DAVISVP2,2013-08-17 15:30:00,
2013-08-17 11:31:00,77.0,75.1,30.07,NE,46,7.0,7.0,94,0.07,,,0.71,Wunderground v.1.15,2013-08-17 15:31:00,
2013-08-17 11:36:00,77.0,75.5,30.07,NE,53,7.0,7.0,95,0.06,,,0.71,Wunderground v.1.15,2013-08-17 15:36:00,
2013-08-17 11:41:00,76.9,75.4,30.07,NE,53,7.0,7.0,95,0.14,,,0.73,Wunderground v.1.15,2013-08-17 15:41:00,
2013-08-17 11:51:00,76.7,75.2,30.07,ESE,105,6.0,6.0,95,0.15,,,0.75,Wunderground v.1.15,2013-08-17 15:51:00,
2013-08-17 11:56:00,76.5,75.0,30.06,East,100,6.0,7.0,95,0.12,,,0.76,Wunderground v.1.15,2013-08-17 15:56:00,
2013-08-17 12:00:00,76.4,74.9,30.06,NE,45,6.0,8.0,95,0.03,,,0.71,WUHU216DAVISVP2,2013-08-17 16:00:00,
2013-08-17 12:01:00,76.4,74.9,30.06,ESE,105,6.0,7.0,95,0.09,,,0.77,Wunderground v.1.15,2013-08-17 16:01:00,
2013-08-17 12:11:00,76.2,74.7,30.06,East,87,6.0,7.0,95,0.16,,,0.79,Wunderground v.1.15,2013-08-17 16:11:00,
2013-08-17 12:16:00,75.9,74.0,30.06,ENE,63,7.0,7.0,94,0.13,,,0.80,Wunderground v.1.15,2013-08-17 16:16:00,
2013-08-17 12:21:00,75.7,73.8,30.06,ENE,63,7.0,13.0,94,0.19,,,0.82,Wunderground v.1.15,2013-08-17 16:21:00,
2013-08-17 12:26:00,75.6,73.8,30.06,NE,46,10.0,15.0,94,0.29,,,0.84,Wunderground v.1.15,2013-08-17 16:26:00,
2013-08-17 12:30:00,75.4,73.9,30.06,ENE,68,9.0,20.0,95,0.06,,,0.77,WUHU216DAVISVP2,2013-08-17 16:30:00,
2013-08-17 12:36:00,75.1,73.9,30.06,NE,44,14.0,17.0,96,0.16,,,0.87,Wunderground v.1.15,2013-08-17 16:36:00,
2013-08-17 12:41:00,75.0,73.5,30.06,NNE,27,14.0,14.0,95,0.08,,,0.88,Wunderground v.1.15,2013-08-17 16:41:00,
2013-08-17 12:46:00,74.7,73.2,30.06,NNE,33,13.0,14.0,95,1.01,,,0.90,Wunderground v.1.15,2013-08-17 16:46:00,
2013-08-17 12:56:00,74.1,72.9,30.05,NNE,30,12.0,13.0,96,0.20,,,0.98,Wunderground v.1.15,2013-08-17 16:56:00,
2013-08-17 13:00:00,73.9,72.7,30.05,NE,45,13.0,20.0,96,0.09,,,0.86,WUHU216DAVISVP2,2013-08-17 17:00:00,
2013-08-17 13:01:00,73.9,72.7,30.05,North,8,11.0,11.0,96,0.10,,,0.99,Wunderground v.1.15,2013-08-17 17:01:00,
2013-08-17 13:11:00,74.0,73.1,30.06,NNE,15,9.0,17.0,97,0.94,,,1.17,Wunderground v.1.15,2013-08-17 17:11:00,
2013-08-17 13:16:00,74.2,73.3,30.06,NNE,25,10.0,17.0,97,0.33,,,1.20,Wunderground v.1.15,2013-08-17 17:16:00,
2013-08-17 13:21:00,74.2,73.3,30.05,North,350,10.0,10.0,97,0.10,,,1.20,Wunderground v.1.15,2013-08-17 17:21:00,
2013-08-17 13:26:00,74.0,72.8,30.05,NE,54,10.0,10.0,96,0.06,,,1.21,Wunderground v.1.15,2013-08-17 17:26:00,
2013-08-17 13:30:00,74.1,73.2,30.05,NNE,23,10.0,18.0,97,0.12,,,0.98,WUHU216DAVISVP2,2013-08-17 17:30:00,
2013-08-17 13:36:00,74.3,73.4,30.05,NNE,23,9.0,10.0,97,0.06,,,1.21,Wunderground v.1.15,2013-08-17 17:36:00,
2013-08-17 13:41:00,74.5,73.6,30.05,NW,316,7.0,7.0,97,0.04,,,1.21,Wunderground v.1.15,2013-08-17 17:41:00,
2013-08-17 13:46:00,74.4,73.5,30.05,NW,312,5.0,7.0,97,0.00,,,1.22,Wunderground v.1.15,2013-08-17 17:46:00,
2013-08-17 13:51:00,74.5,73.6,30.05,NNW,333,5.0,5.0,97,0.00,,,1.22,Wunderground v.1.15,2013-08-17 17:51:00,
2013-08-17 14:00:00,74.7,73.8,30.05,NNE,23,6.0,15.0,97,0.23,,,1.21,WUHU216DAVISVP2,2013-08-17 18:00:00,
2013-08-17 14:01:00,74.7,73.8,30.05,NNE,31,6.0,6.0,97,0.08,,,1.24,Wunderground v.1.15,2013-08-17 18:01:00,
2013-08-17 14:11:00,75.4,74.5,30.05,NNE,18,7.0,7.0,97,0.09,,,1.25,Wunderground v.1.15,2013-08-17 18:11:00,
2013-08-17 14:16:00,75.6,74.7,30.04,NNE,25,7.0,9.0,97,0.09,,,1.26,Wunderground v.1.15,2013-08-17 18:16:00,
2013-08-17 14:21:00,75.3,74.1,30.04,NNE,31,10.0,15.0,96,0.09,,,1.26,Wunderground v.1.15,2013-08-17 18:21:00,
2013-08-17 14:26:00,75.4,74.5,30.04,North,11,11.0,15.0,97,0.05,,,1.26,Wunderground v.1.15,2013-08-17 18:26:00,
2013-08-17 14:30:00,75.4,74.2,30.04,NNE,23,9.0,18.0,96,0.02,,,1.23,WUHU216DAVISVP2,2013-08-17 18:30:00,
2013-08-17 14:36:00,75.3,74.1,30.04,NW,320,12.0,19.0,96,0.00,,,1.26,Wunderground v.1.15,2013-08-17 18:36:00,
2013-08-17 14:41:00,75.5,74.3,30.04,NNE,14,11.0,11.0,96,0.00,,,1.26,Wunderground v.1.15,2013-08-17 18:41:00,
2013-08-17 14:46:00,75.8,74.6,30.03,NNE,28,10.0,11.0,96,0.00,,,1.26,Wunderground v.1.15,2013-08-17 18:46:00,
2013-08-17 14:56:00,76.2,74.7,30.03,WNW,300,8.0,10.0,95,0.00,,,1.26,Wunderground v.1.15,2013-08-17 18:56:00,
2013-08-17 15:00:00,76.2,74.3,30.03,NNE,23,9.0,19.0,94,0.03,,,1.26,WUHU216DAVISVP2,2013-08-17 19:00:00,
2013-08-17 15:01:00,76.3,74.8,30.03,NE,49,7.0,7.0,95,0.00,,,1.26,Wunderground v.1.15,2013-08-17 19:01:00,
2013-08-17 15:11:00,76.7,75.2,30.03,North,11,7.0,7.0,95,0.00,,,1.26,Wunderground v.1.15,2013-08-17 19:11:00,
2013-08-17 15:16:00,77.3,75.1,30.03,NE,37,7.0,11.0,93,0.00,,,1.26,Wunderground v.1.15,2013-08-17 19:16:00,
2013-08-17 15:21:00,77.1,74.9,30.03,NE,53,11.0,15.0,93,0.00,,,1.26,Wunderground v.1.15,2013-08-17 19:21:00,
2013-08-17 15:26:00,77.0,75.1,30.03,NE,39,13.0,15.0,94,0.00,,,1.26,Wunderground v.1.15,2013-08-17 19:26:00,
2013-08-17 15:30:00,76.8,74.6,30.03,NE,45,9.0,17.0,93,0.00,,,1.26,WUHU216DAVISVP2,2013-08-17 19:30:00,
2013-08-17 15:31:00,76.8,74.6,30.03,NNE,33,11.0,13.0,93,0.00,,,1.26,Wunderground v.1.15,2013-08-17 19:31:00,
2013-08-17 15:41:00,77.0,74.8,30.03,NE,39,8.0,8.0,93,0.00,,,1.26,Wunderground v.1.15,2013-08-17 19:41:00,
2013-08-17 15:46:00,76.8,74.6,30.03,NE,49,8.0,8.0,93,0.00,,,1.26,Wunderground v.1.15,2013-08-17 19:46:00,
2013-08-17 15:51:00,76.7,74.5,30.03,NNE,15,8.0,8.0,93,0.00,,,1.26,Wunderground v.1.15,2013-08-17 19:51:00,
2013-08-17 15:56:00,77.0,74.8,30.03,NNW,336,5.0,8.0,93,0.00,,,1.26,Wunderground v.1.15,2013-08-17 19:56:00,
2013-08-17 16:00:00,77.0,74.5,30.03,NE,45,6.0,14.0,92,0.00,,,1.26,WUHU216DAVISVP2,2013-08-17 20:00:00,
2013-08-17 16:01:00,77.0,74.5,30.03,NNW,336,3.0,3.0,92,0.00,,,1.26,Wunderground v.1.15,2013-08-17 20:01:00,
2013-08-17 16:11:00,77.0,74.5,30.03,NW,323,4.0,4.0,92,0.00,,,1.26,Wunderground v.1.15,2013-08-17 20:11:00,
2013-08-17 16:21:00,77.4,74.9,30.02,NW,315,3.0,3.0,92,0.00,,,1.26,Wunderground v.1.15,2013-08-17 20:21:00,
2013-08-17 16:26:00,77.6,74.4,30.02,WNW,291,4.0,4.0,90,0.00,,,1.26,Wunderground v.1.15,2013-08-17 20:26:00,
2013-08-17 16:30:00,77.9,74.7,30.02,NW,315,4.0,8.0,90,0.00,,,1.26,WUHU216DAVISVP2,2013-08-17 20:30:00,
2013-08-17 16:31:00,78.0,74.8,30.02,NNW,330,5.0,5.0,90,0.00,,,1.26,Wunderground v.1.15,2013-08-17 20:31:00,
2013-08-17 16:36:00,78.4,74.9,30.02,West,271,4.0,5.0,89,0.00,,,1.26,Wunderground v.1.15,2013-08-17 20:36:00,
2013-08-17 16:46:00,78.8,74.6,30.02,NW,304,4.0,5.0,87,0.00,,,1.26,Wunderground v.1.15,2013-08-17 20:46:00,
2013-08-17 16:51:00,78.9,74.7,30.02,WNW,297,5.0,8.0,87,0.00,,,1.26,Wunderground v.1.15,2013-08-17 20:51:00,
2013-08-17 16:56:00,79.1,74.9,30.02,WNW,301,5.0,8.0,87,0.00,,,1.26,Wunderground v.1.15,2013-08-17 20:56:00,
2013-08-17 17:00:00,79.4,74.8,30.02,WNW,293,4.0,8.0,86,0.00,,,1.26,WUHU216DAVISVP2,2013-08-17 21:00:00,
2013-08-17 17:01:00,79.3,74.7,30.02,WNW,297,5.0,6.0,86,0.00,,,1.26,Wunderground v.1.15,2013-08-17 21:01:00,
2013-08-17 17:11:00,79.0,74.5,30.03,WNW,296,5.0,5.0,86,0.00,,,1.26,Wunderground v.1.15,2013-08-17 21:11:00,
2013-08-17 17:21:00,78.8,74.6,30.02,WNW,287,4.0,4.0,87,0.00,,,1.26,Wunderground v.1.15,2013-08-17 21:21:00,
2013-08-17 17:26:00,79.3,75.1,30.02,North,4,4.0,4.0,87,0.00,,,1.26,Wunderground v.1.15,2013-08-17 21:26:00,
2013-08-17 17:30:00,79.5,74.9,30.02,WNW,293,4.0,8.0,86,0.00,,,1.26,WUHU216DAVISVP2,2013-08-17 21:30:00,
2013-08-17 17:31:00,79.5,74.6,30.02,WNW,299,3.0,6.0,85,0.00,,,1.26,Wunderground v.1.15,2013-08-17 21:31:00,
2013-08-17 17:36:00,79.6,74.7,30.02,WNW,290,3.0,6.0,85,0.00,,,1.26,Wunderground v.1.15,2013-08-17 21:36:00,
2013-08-17 17:46:00,80.5,75.2,30.02,WNW,295,4.0,4.0,84,0.00,,,1.26,Wunderground v.1.15,2013-08-17 21:46:00,
2013-08-17 17:51:00,80.9,75.2,30.02,NW,313,4.0,4.0,83,0.00,,,1.26,Wunderground v.1.15,2013-08-17 21:51:00,
2013-08-17 17:56:00,81.5,75.5,30.02,WNW,294,3.0,4.0,82,0.00,,,1.26,Wunderground v.1.15,2013-08-17 21:56:00,
2013-08-17 18:00:00,81.9,75.5,30.02,WNW,293,3.0,7.0,81,0.00,,,1.26,WUHU216DAVISVP2,2013-08-17 22:00:00,
2013-08-17 18:01:00,82.0,75.6,30.03,WNW,290,2.0,6.0,81,0.00,,,1.26,Wunderground v.1.15,2013-08-17 22:01:00,
2013-08-17 18:11:00,81.9,75.5,30.03,West,263,3.0,3.0,81,0.00,,,1.26,Wunderground v.1.15,2013-08-17 22:11:00,
2013-08-17 18:16:00,81.9,75.5,30.03,WNW,301,3.0,3.0,81,0.00,,,1.26,Wunderground v.1.15,2013-08-17 22:16:00,
2013-08-17 18:26:00,82.2,75.4,30.03,WNW,288,2.0,3.0,80,0.00,,,1.26,Wunderground v.1.15,2013-08-17 22:26:00,
2013-08-17 18:30:00,82.3,75.1,30.03,WNW,293,3.0,9.0,79,0.00,,,1.26,WUHU216DAVISVP2,2013-08-17 22:30:00,
2013-08-17 18:31:00,81.7,75.3,30.03,East,79,3.0,6.0,81,0.00,,,1.26,Wunderground v.1.15,2013-08-17 22:31:00,
2013-08-17 18:36:00,79.8,75.2,30.03,ENE,58,4.0,6.0,86,0.00,,,1.26,Wunderground v.1.15,2013-08-17 22:36:00,
2013-08-17 18:41:00,79.1,75.6,30.03,East,101,5.0,5.0,89,0.00,,,1.26,Wunderground v.1.15,2013-08-17 22:41:00,
2013-08-17 18:51:00,78.1,74.9,30.04,ENE,65,4.0,4.0,90,0.00,,,1.26,Wunderground v.1.15,2013-08-17 22:51:00,
2013-08-17 18:56:00,78.1,75.3,30.04,ENE,65,4.0,4.0,91,0.00,,,1.26,Wunderground v.1.15,2013-08-17 22:56:00,
2013-08-17 19:00:00,78.2,75.4,30.04,ENE,68,4.0,8.0,91,0.00,,,1.26,WUHU216DAVISVP2,2013-08-17 23:00:00,
2013-08-17 19:01:00,78.1,75.3,30.05,ENE,78,3.0,3.0,91,0.00,,,1.26,Wunderground v.1.15,2013-08-17 23:01:00,
2013-08-17 19:11:00,77.7,74.9,30.05,East,101,2.0,2.0,91,0.00,,,1.26,Wunderground v.1.15,2013-08-17 23:11:00,
2013-08-17 19:16:00,77.6,75.1,30.05,ESE,107,2.0,2.0,92,0.00,,,1.26,Wunderground v.1.15,2013-08-17 23:16:00,
2013-08-17 19:21:00,77.5,75.0,30.06,East,96,2.0,2.0,92,0.00,,,1.26,Wunderground v.1.15,2013-08-17 23:21:00,
2013-08-17 19:30:00,77.5,75.0,30.06,ESE,113,2.0,5.0,92,0.00,,,1.26,WUHU216DAVISVP2,2013-08-17 23:30:00,
2013-08-17 19:31:00,77.6,75.1,30.06,South,170,2.0,3.0,92,0.00,,,1.26,Wunderground v.1.15,2013-08-17 23:31:00,
2013-08-17 19:36:00,77.8,75.0,30.06,West,264,3.0,5.0,91,0.00,,,1.26,Wunderground v.1.15,2013-08-17 23:36:00,
2013-08-17 19:41:00,77.8,75.0,30.06,West,273,4.0,4.0,91,0.00,,,1.26,Wunderground v.1.15,2013-08-17 23:41:00,
2013-08-17 19:46:00,77.7,74.5,30.06,WSW,248,5.0,6.0,90,0.00,,,1.26,Wunderground v.1.15,2013-08-17 23:46:00,
2013-08-17 19:51:00,77.6,74.1,30.06,West,260,5.0,5.0,89,0.00,,,1.26,Wunderground v.1.15,2013-08-17 23:51:00,
2013-08-17 20:00:00,77.5,74.3,30.07,WSW,248,5.0,9.0,90,0.00,,,1.26,WUHU216DAVISVP2,2013-08-18 00:00:00,
2013-08-17 20:01:00,77.5,74.3,30.07,WSW,247,5.0,5.0,90,0.00,,,1.26,Wunderground v.1.15,2013-08-18 00:01:00,
2013-08-17 20:11:00,77.3,74.1,30.07,WSW,240,4.0,7.0,90,0.00,,,1.26,Wunderground v.1.15,2013-08-18 00:11:00,
2013-08-17 20:16:00,77.3,73.8,30.07,WSW,252,5.0,7.0,89,0.00,,,1.26,Wunderground v.1.15,2013-08-18 00:16:00,
2013-08-17 20:21:00,77.3,74.1,30.07,WSW,243,5.0,5.0,90,0.00,,,1.26,Wunderground v.1.15,2013-08-18 00:21:00,
2013-08-17 20:26:00,77.2,74.0,30.07,WSW,248,5.0,9.0,90,0.00,,,1.26,Wunderground v.1.15,2013-08-18 00:26:00,
2013-08-17 20:30:00,77.3,74.1,30.08,WSW,248,5.0,10.0,90,0.00,,,1.26,WUHU216DAVISVP2,2013-08-18 00:30:00,
2013-08-17 20:31:00,77.2,74.0,30.08,West,269,6.0,6.0,90,0.00,,,1.26,Wunderground v.1.15,2013-08-18 00:31:00,
2013-08-17 20:41:00,77.3,74.1,30.08,WSW,255,7.0,7.0,90,0.00,,,1.26,Wunderground v.1.15,2013-08-18 00:41:00,
2013-08-17 20:46:00,77.3,74.1,30.08,West,266,7.0,9.0,90,0.00,,,1.26,Wunderground v.1.15,2013-08-18 00:46:00,
2013-08-17 20:51:00,77.3,74.1,30.08,West,261,7.0,7.0,90,0.00,,,1.26,Wunderground v.1.15,2013-08-18 00:51:00,
2013-08-17 21:00:00,77.3,74.1,30.08,WSW,248,6.0,11.0,90,0.00,,,1.26,WUHU216DAVISVP2,2013-08-18 01:00:00,
2013-08-17 21:01:00,77.2,74.0,30.08,WSW,256,5.0,5.0,90,0.00,,,1.26,Wunderground v.1.15,2013-08-18 01:01:00,
2013-08-17 21:11:00,77.1,74.3,30.08,West,271,4.0,4.0,91,0.00,,,1.26,Wunderground v.1.15,2013-08-18 01:11:00,
2013-08-17 21:16:00,77.0,74.2,30.08,West,271,4.0,5.0,91,0.00,,,1.26,Wunderground v.1.15,2013-08-18 01:16:00,
2013-08-17 21:21:00,77.0,74.2,30.08,WSW,250,5.0,7.0,91,0.00,,,1.26,Wunderground v.1.15,2013-08-18 01:21:00,
2013-08-17 21:26:00,76.9,74.4,30.08,West,274,5.0,7.0,92,0.00,,,1.26,Wunderground v.1.15,2013-08-18 01:26:00,
2013-08-17 21:30:00,76.8,74.3,30.08,West,270,4.0,7.0,92,0.00,,,1.26,WUHU216DAVISVP2,2013-08-18 01:30:00,
2013-08-17 21:31:00,76.8,74.3,30.09,WSW,253,4.0,5.0,92,0.00,,,1.26,Wunderground v.1.15,2013-08-18 01:31:00,
2013-08-17 21:41:00,76.9,74.7,30.09,WSW,242,5.0,5.0,93,0.00,,,1.26,Wunderground v.1.15,2013-08-18 01:41:00,
2013-08-17 21:46:00,76.9,74.7,30.09,West,280,4.0,5.0,93,0.00,,,1.26,Wunderground v.1.15,2013-08-18 01:46:00,
2013-08-17 21:51:00,76.8,74.6,30.09,West,262,4.0,7.0,93,0.00,,,1.26,Wunderground v.1.15,2013-08-18 01:51:00,
2013-08-17 21:56:00,76.8,74.6,30.09,WSW,252,4.0,7.0,93,0.00,,,1.26,Wunderground v.1.15,2013-08-18 01:56:00,
2013-08-17 22:00:00,76.7,74.5,30.09,West,270,4.0,9.0,93,0.00,,,1.26,WUHU216DAVISVP2,2013-08-18 02:00:00,
2013-08-17 22:01:00,76.7,74.5,30.09,WSW,255,4.0,4.0,93,0.00,,,1.26,Wunderground v.1.15,2013-08-18 02:01:00,
2013-08-17 22:11:00,76.4,74.2,30.10,West,278,5.0,6.0,93,0.00,,,1.26,Wunderground v.1.15,2013-08-18 02:11:00,
2013-08-17 22:16:00,76.2,74.3,30.10,West,281,5.0,6.0,94,0.00,,,1.26,Wunderground v.1.15,2013-08-18 02:16:00,
2013-08-17 22:26:00,75.9,74.0,30.10,WNW,295,6.0,6.0,94,0.00,,,1.26,Wunderground v.1.15,2013-08-18 02:26:00,
2013-08-17 22:30:00,75.7,73.8,30.10,West,270,5.0,10.0,94,0.00,,,1.26,WUHU216DAVISVP2,2013-08-18 02:30:00,
2013-08-17 22:31:00,75.7,73.8,30.10,West,269,6.0,7.0,94,0.00,,,1.26,Wunderground v.1.15,2013-08-18 02:31:00,
2013-08-17 22:36:00,75.5,74.0,30.10,West,278,7.0,7.0,95,0.00,,,1.26,Wunderground v.1.15,2013-08-18 02:36:00,
2013-08-17 22:46:00,75.3,73.8,30.10,WNW,297,6.0,7.0,95,0.00,,,1.26,Wunderground v.1.15,2013-08-18 02:46:00,
2013-08-17 22:51:00,75.1,73.6,30.11,WNW,283,5.0,6.0,95,0.00,,,1.26,Wunderground v.1.15,2013-08-18 02:51:00,
2013-08-17 22:56:00,75.0,73.5,30.10,WNW,295,6.0,6.0,95,0.00,,,1.26,Wunderground v.1.15,2013-08-18 02:56:00,
2013-08-17 23:00:00,75.0,73.5,30.10,West,270,6.0,11.0,95,0.00,,,1.26,WUHU216DAVISVP2,2013-08-18 03:00:00,
2013-08-17 23:01:00,75.0,73.5,30.10,WNW,293,6.0,6.0,95,0.00,,,1.26,Wunderground v.1.15,2013-08-18 03:01:00,
2013-08-17 23:11:00,74.7,73.2,30.11,WNW,290,6.0,9.0,95,0.00,,,1.26,Wunderground v.1.15,2013-08-18 03:11:00,
2013-08-17 23:16:00,74.6,73.1,30.11,West,276,6.0,9.0,95,0.00,,,1.26,Wunderground v.1.15,2013-08-18 03:16:00,
2013-08-17 23:26:00,74.5,73.0,30.11,West,265,6.0,6.0,95,0.00,,,1.26,Wunderground v.1.15,2013-08-18 03:26:00,
2013-08-17 23:30:00,74.4,72.9,30.11,West,270,6.0,10.0,95,0.00,,,1.26,WUHU216DAVISVP2,2013-08-18 03:30:00,
2013-08-17 23:31:00,74.4,72.9,30.11,West,259,6.0,6.0,95,0.00,,,1.26,Wunderground v.1.15,2013-08-18 03:31:00,
2013-08-17 23:36:00,74.4,72.9,30.11,West,266,5.0,6.0,95,0.00,,,1.26,Wunderground v.1.15,2013-08-18 03:36:00,
2013-08-17 23:41:00,74.3,72.8,30.11,West,269,5.0,5.0,95,0.00,,,1.26,Wunderground v.1.15,2013-08-18 03:41:00,
2013-08-17 23:51:00,74.1,72.6,30.11,West,281,5.0,5.0,95,0.00,,,1.26,Wunderground v.1.15,2013-08-18 03:51:00,
2013-08-17 23:56:00,74.0,72.5,30.11,WNW,293,5.0,5.0,95,0.00,,,1.26,Wunderground v.1.15,2013-08-18 03:56:00,